TimeCST,TemperatureF,Dew PointF,Humidity,Sea Level PressureIn,VisibilityMPH,Wind Direction,Wind SpeedMPH,Gust SpeedMPH,PrecipitationIn,Events,Conditions,WindDirDegrees,DateUTC
12:53 AM,28.0,10.9,49,30.19,10.0,South,6.9,-,N/A,,Overcast,180,2013-01-25 06:53:00
1:53 AM,28.0,12.9,53,30.18,10.0,South,8.1,-,N/A,,Overcast,170,2013-01-25 07:53:00
2:53 AM,28.0,16.0,61,30.16,10.0,SSW,9.2,-,N/A,,Overcast,200,2013-01-25 08:53:00
3:53 AM,27.0,19.9,75,30.15,10.0,SW,5.8,-,N/A,,Overcast,220,2013-01-25 09:53:00
4:53 AM,26.1,21.9,84,30.14,8.0,SSW,5.8,-,N/A,,Overcast,210,2013-01-25 10:53:00
5:15 AM,26.6,21.2,80,30.10,8.0,SW,5.8,-,N/A,,Overcast,220,2013-01-25 11:15:00
5:26 AM,26.6,21.2,80,30.10,8.0,SW,4.6,-,N/A,,Overcast,230,2013-01-25 11:26:00
5:53 AM,26.1,21.9,84,30.13,7.0,SW,3.5,-,N/A,,Overcast,220,2013-01-25 11:53:00
6:53 AM,25.0,21.9,88,30.14,6.0,WSW,3.5,-,N/A,,Overcast,250,2013-01-25 12:53:00
7:13 AM,26.6,23.0,86,30.11,7.0,West,3.5,-,N/A,,Overcast,260,2013-01-25 13:13:00
7:53 AM,27.0,23.0,85,30.16,6.0,WSW,4.6,-,N/A,,Overcast,250,2013-01-25 13:53:00
8:53 AM,28.9,21.9,75,30.18,8.0,West,9.2,-,N/A,,Overcast,260,2013-01-25 14:53:00
9:53 AM,32.0,21.9,66,30.19,10.0,West,10.4,-,N/A,,Overcast,280,2013-01-25 15:53:00
10:15 AM,33.8,21.2,60,30.15,10.0,West,10.4,-,N/A,,Scattered Clouds,280,2013-01-25 16:15:00
10:53 AM,36.0,21.0,55,30.18,10.0,WNW,9.2,-,N/A,,Clear,300,2013-01-25 16:53:00
11:53 AM,37.9,21.0,51,30.18,10.0,WNW,11.5,-,N/A,,Clear,290,2013-01-25 17:53:00
12:53 PM,39.9,21.0,47,30.15,10.0,West,12.7,-,N/A,,Clear,280,2013-01-25 18:53:00
1:53 PM,42.1,19.9,41,30.15,10.0,West,15.0,-,N/A,,Clear,270,2013-01-25 19:53:00
2:53 PM,43.0,19.9,40,30.15,10.0,WNW,9.2,-,N/A,,Clear,290,2013-01-25 20:53:00
3:53 PM,42.1,19.9,41,30.16,10.0,West,9.2,-,N/A,,Clear,280,2013-01-25 21:53:00
4:53 PM,39.0,19.0,45,30.17,10.0,West,8.1,-,N/A,,Clear,280,2013-01-25 22:53:00
5:53 PM,37.0,19.0,48,30.19,10.0,West,8.1,-,N/A,,Clear,280,2013-01-25 23:53:00
6:53 PM,34.0,19.0,54,30.20,10.0,West,5.8,-,N/A,,Clear,260,2013-01-26 00:53:00
7:53 PM,33.1,19.0,56,30.20,10.0,West,6.9,-,N/A,,Clear,260,2013-01-26 01:53:00
8:53 PM,34.0,19.0,54,30.22,10.0,West,6.9,-,N/A,,Clear,270,2013-01-26 02:53:00
9:53 PM,33.1,19.0,56,30.25,10.0,West,6.9,-,N/A,,Clear,260,2013-01-26 03:53:00
10:53 PM,34.0,19.9,56,30.25,10.0,West,6.9,-,N/A,,Clear,270,2013-01-26 04:53:00
11:53 PM,35.1,19.9,54,30.25,10.0,WNW,8.1,-,N/A,,Clear,290,2013-01-26 05:53:00